sensor_id;sensor_type;location;lat;lon;timestamp;P1;durP1;ratioP1;P2;durP2;ratioP2
65799;SDS011;52544;48.116;11.660;2023-10-13T00:00:56;6.28;;;2.67;;
65799;SDS011;52544;48.116;11.660;2023-10-13T00:03:23;6.95;;;2.97;;
65799;SDS011;52544;48.116;11.660;2023-10-13T00:05:48;10.40;;;2.88;;
65799;SDS011;52544;48.116;11.660;2023-10-13T00:08:17;6.43;;;2.75;;
65799;SDS011;52544;48.116;11.660;2023-10-13T00:10:43;6.18;;;2.75;;
65799;SDS011;52544;48.116;11.660;2023-10-13T00:13:09;5.25;;;2.78;;
65799;SDS011;52544;48.116;11.660;2023-10-13T00:15:38;6.10;;;2.88;;
65799;SDS011;52544;48.116;11.660;2023-10-13T00:18:28;5.57;;;3.08;;
65799;SDS011;52544;48.116;11.660;2023-10-13T00:21:06;9.35;;;2.92;;
65799;SDS011;52544;48.116;11.660;2023-10-13T00:23:42;7.97;;;3.17;;
65799;SDS011;52544;48.116;11.660;2023-10-13T00:26:17;7.07;;;3.08;;
65799;SDS011;52544;48.116;11.660;2023-10-13T00:28:56;10.55;;;2.90;;
65799;SDS011;52544;48.116;11.660;2023-10-13T00:31:39;7.20;;;3.13;;
65799;SDS011;52544;48.116;11.660;2023-10-13T00:34:11;4.85;;;2.55;;
65799;SDS011;52544;48.116;11.660;2023-10-13T00:36:41;13.20;;;2.95;;
65799;SDS011;52544;48.116;11.660;2023-10-13T00:39:25;5.70;;;3.00;;
65799;SDS011;52544;48.116;11.660;2023-10-13T00:41:50;5.75;;;2.80;;
65799;SDS011;52544;48.116;11.660;2023-10-13T00:44:23;6.80;;;2.85;;
65799;SDS011;52544;48.116;11.660;2023-10-13T00:47:03;9.73;;;2.90;;
65799;SDS011;52544;48.116;11.660;2023-10-13T00:49:33;10.10;;;2.97;;
65799;SDS011;52544;48.116;11.660;2023-10-13T00:52:04;6.75;;;2.78;;
65799;SDS011;52544;48.116;11.660;2023-10-13T00:54:31;5.50;;;2.65;;
65799;SDS011;52544;48.116;11.660;2023-10-13T00:57:00;9.90;;;2.97;;
65799;SDS011;52544;48.116;11.660;2023-10-13T00:59:51;6.38;;;3.00;;
65799;SDS011;52544;48.116;11.660;2023-10-13T01:02:19;5.68;;;2.90;;
65799;SDS011;52544;48.116;11.660;2023-10-13T01:05:06;5.70;;;3.00;;
65799;SDS011;52544;48.116;11.660;2023-10-13T01:07:37;8.55;;;2.80;;
65799;SDS011;52544;48.116;11.660;2023-10-13T01:10:09;5.72;;;2.80;;
65799;SDS011;52544;48.116;11.660;2023-10-13T01:12:39;6.15;;;3.05;;
65799;SDS011;52544;48.116;11.660;2023-10-13T01:15:07;5.60;;;2.67;;
65799;SDS011;52544;48.116;11.660;2023-10-13T01:17:36;5.25;;;2.78;;
65799;SDS011;52544;48.116;11.660;2023-10-13T01:20:02;7.32;;;3.22;;
65799;SDS011;52544;48.116;11.660;2023-10-13T01:22:30;8.68;;;2.90;;
65799;SDS011;52544;48.116;11.660;2023-10-13T01:24:57;7.65;;;3.10;;
65799;SDS011;52544;48.116;11.660;2023-10-13T01:27:29;7.75;;;3.08;;
65799;SDS011;52544;48.116;11.660;2023-10-13T01:29:55;13.60;;;3.22;;
65799;SDS011;52544;48.116;11.660;2023-10-13T01:32:35;5.18;;;3.03;;
65799;SDS011;52544;48.116;11.660;2023-10-13T01:35:09;5.13;;;2.70;;
65799;SDS011;52544;48.116;11.660;2023-10-13T01:37:35;4.75;;;2.67;;
65799;SDS011;52544;48.116;11.660;2023-10-13T01:40:00;6.75;;;2.88;;
65799;SDS011;52544;48.116;11.660;2023-10-13T01:42:25;5.75;;;2.72;;
65799;SDS011;52544;48.116;11.660;2023-10-13T01:44:53;9.63;;;3.15;;
65799;SDS011;52544;48.116;11.660;2023-10-13T01:47:30;5.88;;;2.83;;
65799;SDS011;52544;48.116;11.660;2023-10-13T01:49:58;4.80;;;2.67;;
65799;SDS011;52544;48.116;11.660;2023-10-13T01:52:27;4.45;;;2.47;;
65799;SDS011;52544;48.116;11.660;2023-10-13T01:54:54;9.50;;;2.97;;
65799;SDS011;52544;48.116;11.660;2023-10-13T01:57:20;6.80;;;2.97;;
65799;SDS011;52544;48.116;11.660;2023-10-13T01:59:49;9.23;;;2.63;;
65799;SDS011;52544;48.116;11.660;2023-10-13T02:02:15;8.55;;;3.00;;
65799;SDS011;52544;48.116;11.660;2023-10-13T02:04:53;7.88;;;2.72;;
65799;SDS011;52544;48.116;11.660;2023-10-13T02:07:25;7.80;;;3.17;;
65799;SDS011;52544;48.116;11.660;2023-10-13T02:09:59;9.07;;;3.10;;
65799;SDS011;52544;48.116;11.660;2023-10-13T02:12:29;12.05;;;3.13;;
65799;SDS011;52544;48.116;11.660;2023-10-13T02:15:02;8.70;;;2.90;;
65799;SDS011;52544;48.116;11.660;2023-10-13T02:17:30;11.05;;;3.10;;
65799;SDS011;52544;48.116;11.660;2023-10-13T02:20:08;6.45;;;3.10;;
65799;SDS011;52544;48.116;11.660;2023-10-13T02:22:40;10.50;;;3.08;;
65799;SDS011;52544;48.116;11.660;2023-10-13T02:25:17;10.30;;;3.22;;
65799;SDS011;52544;48.116;11.660;2023-10-13T02:28:00;9.02;;;2.50;;
65799;SDS011;52544;48.116;11.660;2023-10-13T02:30:26;10.90;;;2.80;;
65799;SDS011;52544;48.116;11.660;2023-10-13T02:32:52;6.32;;;3.40;;
65799;SDS011;52544;48.116;11.660;2023-10-13T02:35:18;6.80;;;3.00;;
65799;SDS011;52544;48.116;11.660;2023-10-13T02:37:54;7.00;;;2.88;;
65799;SDS011;52544;48.116;11.660;2023-10-13T02:40:21;11.63;;;3.30;;
65799;SDS011;52544;48.116;11.660;2023-10-13T02:42:48;5.72;;;2.88;;
65799;SDS011;52544;48.116;11.660;2023-10-13T02:45:14;7.47;;;2.78;;
65799;SDS011;52544;48.116;11.660;2023-10-13T02:47:40;8.57;;;2.80;;
65799;SDS011;52544;48.116;11.660;2023-10-13T02:50:08;8.18;;;2.72;;
65799;SDS011;52544;48.116;11.660;2023-10-13T02:52:37;4.80;;;2.88;;
65799;SDS011;52544;48.116;11.660;2023-10-13T02:55:06;7.97;;;3.22;;
65799;SDS011;52544;48.116;11.660;2023-10-13T02:57:35;7.32;;;3.15;;
65799;SDS011;52544;48.116;11.660;2023-10-13T03:00:01;5.47;;;3.10;;
65799;SDS011;52544;48.116;11.660;2023-10-13T03:02:37;11.40;;;3.03;;
65799;SDS011;52544;48.116;11.660;2023-10-13T03:05:09;6.35;;;3.03;;
65799;SDS011;52544;48.116;11.660;2023-10-13T03:07:34;6.22;;;3.08;;
65799;SDS011;52544;48.116;11.660;2023-10-13T03:10:01;9.02;;;3.10;;
65799;SDS011;52544;48.116;11.660;2023-10-13T03:12:35;6.22;;;3.03;;
65799;SDS011;52544;48.116;11.660;2023-10-13T03:15:05;10.65;;;3.47;;
65799;SDS011;52544;48.116;11.660;2023-10-13T03:17:45;7.22;;;3.10;;
65799;SDS011;52544;48.116;11.660;2023-10-13T03:20:12;6.18;;;3.03;;
65799;SDS011;52544;48.116;11.660;2023-10-13T03:22:41;6.90;;;3.13;;
65799;SDS011;52544;48.116;11.660;2023-10-13T03:25:11;9.82;;;3.10;;
65799;SDS011;52544;48.116;11.660;2023-10-13T03:27:43;5.88;;;2.90;;
65799;SDS011;52544;48.116;11.660;2023-10-13T03:30:17;8.50;;;3.10;;
65799;SDS011;52544;48.116;11.660;2023-10-13T03:32:45;9.98;;;3.25;;
65799;SDS011;52544;48.116;11.660;2023-10-13T03:35:13;9.35;;;3.40;;
65799;SDS011;52544;48.116;11.660;2023-10-13T03:37:42;8.15;;;3.00;;
65799;SDS011;52544;48.116;11.660;2023-10-13T03:42:52;8.43;;;2.75;;
65799;SDS011;52544;48.116;11.660;2023-10-13T03:45:25;9.95;;;3.05;;
65799;SDS011;52544;48.116;11.660;2023-10-13T03:47:54;10.55;;;3.10;;
65799;SDS011;52544;48.116;11.660;2023-10-13T03:50:19;7.03;;;3.35;;
65799;SDS011;52544;48.116;11.660;2023-10-13T03:52:55;6.47;;;2.97;;
65799;SDS011;52544;48.116;11.660;2023-10-13T03:55:24;7.82;;;3.10;;
65799;SDS011;52544;48.116;11.660;2023-10-13T03:57:58;6.07;;;2.78;;
65799;SDS011;52544;48.116;11.660;2023-10-13T04:00:25;9.43;;;3.20;;
65799;SDS011;52544;48.116;11.660;2023-10-13T04:02:52;8.75;;;3.20;;
65799;SDS011;52544;48.116;11.660;2023-10-13T04:05:38;13.13;;;3.17;;
65799;SDS011;52544;48.116;11.660;2023-10-13T04:08:26;8.75;;;3.22;;
65799;SDS011;52544;48.116;11.660;2023-10-13T04:10:52;7.35;;;3.28;;
65799;SDS011;52544;48.116;11.660;2023-10-13T04:13:19;9.65;;;3.65;;
65799;SDS011;52544;48.116;11.660;2023-10-13T04:16:04;13.93;;;3.70;;
65799;SDS011;52544;48.116;11.660;2023-10-13T04:18:41;8.05;;;3.03;;
65799;SDS011;52544;48.116;11.660;2023-10-13T04:21:25;7.35;;;2.85;;
65799;SDS011;52544;48.116;11.660;2023-10-13T04:24:20;5.50;;;2.58;;
65799;SDS011;52544;48.116;11.660;2023-10-13T04:27:04;5.35;;;2.60;;
65799;SDS011;52544;48.116;11.660;2023-10-13T04:29:39;9.95;;;3.00;;
65799;SDS011;52544;48.116;11.660;2023-10-13T04:32:34;8.05;;;3.10;;
65799;SDS011;52544;48.116;11.660;2023-10-13T04:35:11;13.27;;;2.80;;
65799;SDS011;52544;48.116;11.660;2023-10-13T04:37:40;9.50;;;2.95;;
65799;SDS011;52544;48.116;11.660;2023-10-13T04:40:23;9.27;;;3.10;;
65799;SDS011;52544;48.116;11.660;2023-10-13T04:42:53;6.05;;;3.00;;
65799;SDS011;52544;48.116;11.660;2023-10-13T04:45:21;8.32;;;3.15;;
65799;SDS011;52544;48.116;11.660;2023-10-13T04:48:03;6.25;;;2.85;;
65799;SDS011;52544;48.116;11.660;2023-10-13T04:50:48;9.20;;;3.13;;
65799;SDS011;52544;48.116;11.660;2023-10-13T04:53:23;5.90;;;3.17;;
65799;SDS011;52544;48.116;11.660;2023-10-13T04:56:20;11.07;;;2.85;;
65799;SDS011;52544;48.116;11.660;2023-10-13T04:59:05;10.68;;;3.28;;
65799;SDS011;52544;48.116;11.660;2023-10-13T05:01:48;8.50;;;2.90;;
65799;SDS011;52544;48.116;11.660;2023-10-13T05:04:43;8.63;;;3.25;;
65799;SDS011;52544;48.116;11.660;2023-10-13T05:07:27;10.27;;;2.88;;
65799;SDS011;52544;48.116;11.660;2023-10-13T05:10:10;7.43;;;2.70;;
65799;SDS011;52544;48.116;11.660;2023-10-13T05:12:54;7.38;;;2.88;;
65799;SDS011;52544;48.116;11.660;2023-10-13T05:15:44;14.90;;;2.90;;
65799;SDS011;52544;48.116;11.660;2023-10-13T05:18:31;13.45;;;2.45;;
65799;SDS011;52544;48.116;11.660;2023-10-13T05:21:15;7.35;;;3.00;;
65799;SDS011;52544;48.116;11.660;2023-10-13T05:23:59;6.30;;;2.80;;
65799;SDS011;52544;48.116;11.660;2023-10-13T05:26:43;4.20;;;2.40;;
65799;SDS011;52544;48.116;11.660;2023-10-13T05:29:26;6.18;;;2.67;;
65799;SDS011;52544;48.116;11.660;2023-10-13T05:32:10;10.30;;;3.80;;
65799;SDS011;52544;48.116;11.660;2023-10-13T05:34:54;9.05;;;3.30;;
65799;SDS011;52544;48.116;11.660;2023-10-13T05:37:38;11.13;;;2.90;;
65799;SDS011;52544;48.116;11.660;2023-10-13T05:40:22;11.45;;;3.10;;
65799;SDS011;52544;48.116;11.660;2023-10-13T05:43:06;17.08;;;3.78;;
65799;SDS011;52544;48.116;11.660;2023-10-13T05:45:49;7.20;;;3.13;;
65799;SDS011;52544;48.116;11.660;2023-10-13T05:48:33;11.65;;;3.00;;
65799;SDS011;52544;48.116;11.660;2023-10-13T05:51:18;8.98;;;2.78;;
65799;SDS011;52544;48.116;11.660;2023-10-13T05:54:03;5.20;;;2.67;;
65799;SDS011;52544;48.116;11.660;2023-10-13T05:56:38;19.58;;;3.10;;
65799;SDS011;52544;48.116;11.660;2023-10-13T05:59:30;5.65;;;2.70;;
65799;SDS011;52544;48.116;11.660;2023-10-13T06:02:15;8.57;;;2.63;;
65799;SDS011;52544;48.116;11.660;2023-10-13T06:07:47;9.45;;;2.72;;
65799;SDS011;52544;48.116;11.660;2023-10-13T06:10:31;7.30;;;2.53;;
65799;SDS011;52544;48.116;11.660;2023-10-13T06:13:15;7.35;;;2.30;;
65799;SDS011;52544;48.116;11.660;2023-10-13T06:15:59;8.68;;;2.63;;
65799;SDS011;52544;48.116;11.660;2023-10-13T06:18:43;19.15;;;3.63;;
65799;SDS011;52544;48.116;11.660;2023-10-13T06:21:27;6.70;;;2.67;;
65799;SDS011;52544;48.116;11.660;2023-10-13T06:24:10;11.05;;;2.53;;
65799;SDS011;52544;48.116;11.660;2023-10-13T06:26:54;8.98;;;2.85;;
65799;SDS011;52544;48.116;11.660;2023-10-13T06:29:38;11.38;;;3.20;;
65799;SDS011;52544;48.116;11.660;2023-10-13T06:32:03;9.23;;;3.20;;
65799;SDS011;52544;48.116;11.660;2023-10-13T06:34:38;5.38;;;2.35;;
65799;SDS011;52544;48.116;11.660;2023-10-13T06:37:10;13.02;;;2.88;;
65799;SDS011;52544;48.116;11.660;2023-10-13T06:39:54;10.32;;;2.35;;
65799;SDS011;52544;48.116;11.660;2023-10-13T06:42:27;14.15;;;2.75;;
65799;SDS011;52544;48.116;11.660;2023-10-13T06:44:53;14.07;;;3.47;;
65799;SDS011;52544;48.116;11.660;2023-10-13T06:47:20;13.23;;;3.08;;
65799;SDS011;52544;48.116;11.660;2023-10-13T06:49:50;9.90;;;3.00;;
65799;SDS011;52544;48.116;11.660;2023-10-13T06:52:19;10.63;;;2.97;;
65799;SDS011;52544;48.116;11.660;2023-10-13T06:54:51;13.43;;;2.63;;
65799;SDS011;52544;48.116;11.660;2023-10-13T06:57:19;6.72;;;2.60;;
65799;SDS011;52544;48.116;11.660;2023-10-13T06:59:48;5.13;;;2.45;;
65799;SDS011;52544;48.116;11.660;2023-10-13T07:02:13;7.97;;;3.03;;
65799;SDS011;52544;48.116;11.660;2023-10-13T07:04:48;7.78;;;2.80;;
65799;SDS011;52544;48.116;11.660;2023-10-13T07:07:22;8.73;;;3.13;;
65799;SDS011;52544;48.116;11.660;2023-10-13T07:09:49;15.98;;;2.80;;
65799;SDS011;52544;48.116;11.660;2023-10-13T07:12:20;9.05;;;3.00;;
65799;SDS011;52544;48.116;11.660;2023-10-13T07:14:51;9.95;;;2.92;;
65799;SDS011;52544;48.116;11.660;2023-10-13T07:17:19;7.78;;;2.92;;
65799;SDS011;52544;48.116;11.660;2023-10-13T07:19:54;14.45;;;2.85;;
65799;SDS011;52544;48.116;11.660;2023-10-13T07:22:24;10.80;;;3.30;;
65799;SDS011;52544;48.116;11.660;2023-10-13T07:24:52;15.35;;;2.85;;
65799;SDS011;52544;48.116;11.660;2023-10-13T07:27:21;19.80;;;2.75;;
65799;SDS011;52544;48.116;11.660;2023-10-13T07:32:22;11.02;;;3.10;;
65799;SDS011;52544;48.116;11.660;2023-10-13T07:34:52;10.98;;;3.05;;
65799;SDS011;52544;48.116;11.660;2023-10-13T07:37:21;16.13;;;3.40;;
65799;SDS011;52544;48.116;11.660;2023-10-13T07:39:50;12.48;;;2.90;;
65799;SDS011;52544;48.116;11.660;2023-10-13T07:42:15;12.90;;;2.92;;
65799;SDS011;52544;48.116;11.660;2023-10-13T07:44:44;12.90;;;3.05;;
65799;SDS011;52544;48.116;11.660;2023-10-13T07:47:13;9.15;;;2.75;;
65799;SDS011;52544;48.116;11.660;2023-10-13T07:49:39;6.30;;;2.85;;
65799;SDS011;52544;48.116;11.660;2023-10-13T07:52:09;13.70;;;3.00;;
65799;SDS011;52544;48.116;11.660;2023-10-13T07:54:44;11.07;;;3.10;;
65799;SDS011;52544;48.116;11.660;2023-10-13T07:57:14;15.55;;;3.10;;
65799;SDS011;52544;48.116;11.660;2023-10-13T07:59:40;14.35;;;2.65;;
65799;SDS011;52544;48.116;11.660;2023-10-13T08:02:18;14.05;;;3.25;;
65799;SDS011;52544;48.116;11.660;2023-10-13T08:05:13;4.63;;;2.25;;
65799;SDS011;52544;48.116;11.660;2023-10-13T08:07:40;14.10;;;2.75;;
65799;SDS011;52544;48.116;11.660;2023-10-13T08:10:06;13.57;;;3.03;;
65799;SDS011;52544;48.116;11.660;2023-10-13T08:12:35;9.57;;;2.47;;
65799;SDS011;52544;48.116;11.660;2023-10-13T08:15:02;11.65;;;3.25;;
65799;SDS011;52544;48.116;11.660;2023-10-13T08:17:46;13.02;;;2.90;;
65799;SDS011;52544;48.116;11.660;2023-10-13T08:20:12;21.05;;;3.30;;
65799;SDS011;52544;48.116;11.660;2023-10-13T08:22:38;12.70;;;3.20;;
65799;SDS011;52544;48.116;11.660;2023-10-13T08:25:04;9.10;;;3.00;;
65799;SDS011;52544;48.116;11.660;2023-10-13T08:27:48;7.93;;;2.60;;
65799;SDS011;52544;48.116;11.660;2023-10-13T08:30:15;17.58;;;2.85;;
65799;SDS011;52544;48.116;11.660;2023-10-13T08:32:51;7.28;;;2.80;;
65799;SDS011;52544;48.116;11.660;2023-10-13T08:35:20;8.45;;;3.13;;
65799;SDS011;52544;48.116;11.660;2023-10-13T08:37:54;4.72;;;2.50;;
65799;SDS011;52544;48.116;11.660;2023-10-13T08:40:22;10.35;;;2.85;;
65799;SDS011;52544;48.116;11.660;2023-10-13T08:43:11;12.48;;;2.65;;
65799;SDS011;52544;48.116;11.660;2023-10-13T08:45:41;7.90;;;2.63;;
65799;SDS011;52544;48.116;11.660;2023-10-13T08:48:08;11.95;;;3.00;;
65799;SDS011;52544;48.116;11.660;2023-10-13T08:50:42;6.65;;;2.30;;
65799;SDS011;52544;48.116;11.660;2023-10-13T08:56:28;11.85;;;2.80;;
65799;SDS011;52544;48.116;11.660;2023-10-13T08:59:00;8.73;;;2.28;;
65799;SDS011;52544;48.116;11.660;2023-10-13T09:01:28;8.60;;;2.33;;
65799;SDS011;52544;48.116;11.660;2023-10-13T09:04:05;6.53;;;2.53;;
65799;SDS011;52544;48.116;11.660;2023-10-13T09:09:48;8.48;;;2.58;;
65799;SDS011;52544;48.116;11.660;2023-10-13T09:12:20;11.18;;;2.55;;
65799;SDS011;52544;48.116;11.660;2023-10-13T09:17:51;6.13;;;2.17;;
65799;SDS011;52544;48.116;11.660;2023-10-13T09:20:29;6.00;;;2.08;;
65799;SDS011;52544;48.116;11.660;2023-10-13T09:23:17;8.38;;;2.67;;
65799;SDS011;52544;48.116;11.660;2023-10-13T09:25:50;13.65;;;2.67;;
65799;SDS011;52544;48.116;11.660;2023-10-13T09:28:19;7.40;;;2.85;;
65799;SDS011;52544;48.116;11.660;2023-10-13T09:30:51;8.18;;;2.08;;
65799;SDS011;52544;48.116;11.660;2023-10-13T09:33:21;6.55;;;2.50;;
65799;SDS011;52544;48.116;11.660;2023-10-13T09:35:58;6.30;;;2.00;;
65799;SDS011;52544;48.116;11.660;2023-10-13T09:38:30;7.50;;;2.63;;
65799;SDS011;52544;48.116;11.660;2023-10-13T09:40:57;10.90;;;2.58;;
65799;SDS011;52544;48.116;11.660;2023-10-13T09:43:26;10.25;;;2.58;;
65799;SDS011;52544;48.116;11.660;2023-10-13T09:45:59;8.10;;;2.53;;
65799;SDS011;52544;48.116;11.660;2023-10-13T09:48:46;7.93;;;2.85;;
65799;SDS011;52544;48.116;11.660;2023-10-13T09:51:13;7.40;;;2.47;;
65799;SDS011;52544;48.116;11.660;2023-10-13T09:53:40;7.43;;;2.47;;
65799;SDS011;52544;48.116;11.660;2023-10-13T09:56:31;7.70;;;2.30;;
65799;SDS011;52544;48.116;11.660;2023-10-13T09:59:11;16.08;;;2.65;;
65799;SDS011;52544;48.116;11.660;2023-10-13T10:01:44;13.10;;;2.75;;
65799;SDS011;52544;48.116;11.660;2023-10-13T10:04:16;9.18;;;2.28;;
65799;SDS011;52544;48.116;11.660;2023-10-13T10:06:56;6.78;;;2.10;;
65799;SDS011;52544;48.116;11.660;2023-10-13T10:09:31;8.45;;;2.58;;
65799;SDS011;52544;48.116;11.660;2023-10-13T10:17:45;11.25;;;2.50;;
65799;SDS011;52544;48.116;11.660;2023-10-13T10:20:11;6.65;;;2.13;;
65799;SDS011;52544;48.116;11.660;2023-10-13T10:22:57;10.30;;;2.53;;
65799;SDS011;52544;48.116;11.660;2023-10-13T10:25:30;5.78;;;1.80;;
65799;SDS011;52544;48.116;11.660;2023-10-13T10:28:02;5.28;;;2.03;;
65799;SDS011;52544;48.116;11.660;2023-10-13T10:30:33;5.40;;;2.20;;
65799;SDS011;52544;48.116;11.660;2023-10-13T10:33:00;12.48;;;2.70;;
65799;SDS011;52544;48.116;11.660;2023-10-13T10:35:31;4.95;;;2.05;;
65799;SDS011;52544;48.116;11.660;2023-10-13T10:38:10;15.65;;;2.40;;
65799;SDS011;52544;48.116;11.660;2023-10-13T10:40:48;8.55;;;2.47;;
65799;SDS011;52544;48.116;11.660;2023-10-13T10:43:17;3.28;;;1.30;;
65799;SDS011;52544;48.116;11.660;2023-10-13T10:45:47;5.95;;;1.83;;
65799;SDS011;52544;48.116;11.660;2023-10-13T10:48:16;6.90;;;1.80;;
65799;SDS011;52544;48.116;11.660;2023-10-13T10:50:53;7.72;;;1.65;;
65799;SDS011;52544;48.116;11.660;2023-10-13T10:53:22;4.95;;;1.77;;
65799;SDS011;52544;48.116;11.660;2023-10-13T10:56:07;6.28;;;1.65;;
65799;SDS011;52544;48.116;11.660;2023-10-13T10:58:45;7.60;;;1.88;;
65799;SDS011;52544;48.116;11.660;2023-10-13T11:01:14;11.35;;;1.83;;
65799;SDS011;52544;48.116;11.660;2023-10-13T11:03:53;11.13;;;2.00;;
65799;SDS011;52544;48.116;11.660;2023-10-13T11:06:24;7.50;;;1.60;;
65799;SDS011;52544;48.116;11.660;2023-10-13T11:09:00;6.97;;;1.90;;
65799;SDS011;52544;48.116;11.660;2023-10-13T11:11:30;5.18;;;1.98;;
65799;SDS011;52544;48.116;11.660;2023-10-13T11:14:00;12.88;;;1.83;;
65799;SDS011;52544;48.116;11.660;2023-10-13T11:16:48;8.05;;;2.13;;
65799;SDS011;52544;48.116;11.660;2023-10-13T11:19:18;8.63;;;1.98;;
65799;SDS011;52544;48.116;11.660;2023-10-13T11:21:50;6.05;;;1.52;;
65799;SDS011;52544;48.116;11.660;2023-10-13T11:24:18;10.35;;;2.28;;
65799;SDS011;52544;48.116;11.660;2023-10-13T11:26:43;5.05;;;2.17;;
65799;SDS011;52544;48.116;11.660;2023-10-13T11:29:18;6.38;;;2.40;;
65799;SDS011;52544;48.116;11.660;2023-10-13T11:31:48;15.98;;;2.28;;
65799;SDS011;52544;48.116;11.660;2023-10-13T11:34:20;4.85;;;1.85;;
65799;SDS011;52544;48.116;11.660;2023-10-13T11:36:45;6.15;;;2.10;;
65799;SDS011;52544;48.116;11.660;2023-10-13T11:39:11;10.52;;;2.03;;
65799;SDS011;52544;48.116;11.660;2023-10-13T11:41:47;6.40;;;1.65;;
65799;SDS011;52544;48.116;11.660;2023-10-13T11:44:21;3.83;;;2.00;;
65799;SDS011;52544;48.116;11.660;2023-10-13T11:46:56;5.80;;;2.20;;
65799;SDS011;52544;48.116;11.660;2023-10-13T11:49:22;6.82;;;1.90;;
65799;SDS011;52544;48.116;11.660;2023-10-13T11:51:53;9.48;;;2.08;;
65799;SDS011;52544;48.116;11.660;2023-10-13T11:54:33;7.38;;;2.17;;
65799;SDS011;52544;48.116;11.660;2023-10-13T11:57:01;8.20;;;2.33;;
65799;SDS011;52544;48.116;11.660;2023-10-13T11:59:27;4.60;;;1.80;;
65799;SDS011;52544;48.116;11.660;2023-10-13T12:01:53;6.10;;;1.90;;
65799;SDS011;52544;48.116;11.660;2023-10-13T12:04:37;5.75;;;2.08;;
65799;SDS011;52544;48.116;11.660;2023-10-13T12:07:16;7.28;;;2.15;;
65799;SDS011;52544;48.116;11.660;2023-10-13T12:09:45;5.30;;;1.83;;
65799;SDS011;52544;48.116;11.660;2023-10-13T12:12:20;9.20;;;2.20;;
65799;SDS011;52544;48.116;11.660;2023-10-13T12:14:49;6.72;;;2.40;;
65799;SDS011;52544;48.116;11.660;2023-10-13T12:17:35;6.53;;;2.03;;
65799;SDS011;52544;48.116;11.660;2023-10-13T12:20:02;6.85;;;1.90;;
65799;SDS011;52544;48.116;11.660;2023-10-13T12:22:31;2.67;;;1.88;;
65799;SDS011;52544;48.116;11.660;2023-10-13T12:25:01;4.55;;;1.60;;
65799;SDS011;52544;48.116;11.660;2023-10-13T12:27:30;5.72;;;1.90;;
65799;SDS011;52544;48.116;11.660;2023-10-13T12:30:11;5.45;;;1.70;;
65799;SDS011;52544;48.116;11.660;2023-10-13T12:32:39;6.45;;;2.20;;
65799;SDS011;52544;48.116;11.660;2023-10-13T12:35:18;6.45;;;2.15;;
65799;SDS011;52544;48.116;11.660;2023-10-13T12:37:55;11.50;;;2.40;;
65799;SDS011;52544;48.116;11.660;2023-10-13T12:40:30;8.30;;;2.28;;
65799;SDS011;52544;48.116;11.660;2023-10-13T12:43:13;6.15;;;2.00;;
65799;SDS011;52544;48.116;11.660;2023-10-13T12:45:57;5.80;;;1.90;;
65799;SDS011;52544;48.116;11.660;2023-10-13T12:48:41;9.32;;;1.70;;
65799;SDS011;52544;48.116;11.660;2023-10-13T12:51:29;4.30;;;1.88;;
65799;SDS011;52544;48.116;11.660;2023-10-13T12:53:58;5.40;;;1.77;;
65799;SDS011;52544;48.116;11.660;2023-10-13T12:56:38;8.73;;;2.08;;
65799;SDS011;52544;48.116;11.660;2023-10-13T12:59:07;6.90;;;1.90;;
65799;SDS011;52544;48.116;11.660;2023-10-13T13:01:38;4.75;;;1.90;;
65799;SDS011;52544;48.116;11.660;2023-10-13T13:04:07;6.88;;;1.70;;
65799;SDS011;52544;48.116;11.660;2023-10-13T13:06:37;5.60;;;1.75;;
65799;SDS011;52544;48.116;11.660;2023-10-13T13:09:02;5.50;;;1.83;;
65799;SDS011;52544;48.116;11.660;2023-10-13T13:11:27;4.07;;;1.73;;
65799;SDS011;52544;48.116;11.660;2023-10-13T13:13:56;4.07;;;1.80;;
65799;SDS011;52544;48.116;11.660;2023-10-13T13:16:22;2.65;;;1.52;;
65799;SDS011;52544;48.116;11.660;2023-10-13T13:18:50;4.22;;;1.92;;
65799;SDS011;52544;48.116;11.660;2023-10-13T13:21:15;10.05;;;2.08;;
65799;SDS011;52544;48.116;11.660;2023-10-13T13:23:53;6.40;;;1.90;;
65799;SDS011;52544;48.116;11.660;2023-10-13T13:26:21;10.32;;;3.05;;
65799;SDS011;52544;48.116;11.660;2023-10-13T13:28:47;4.05;;;1.75;;
65799;SDS011;52544;48.116;11.660;2023-10-13T13:31:16;7.65;;;2.70;;
65799;SDS011;52544;48.116;11.660;2023-10-13T13:33:51;4.65;;;1.60;;
65799;SDS011;52544;48.116;11.660;2023-10-13T13:36:16;8.90;;;2.17;;
65799;SDS011;52544;48.116;11.660;2023-10-13T13:38:42;8.02;;;2.45;;
65799;SDS011;52544;48.116;11.660;2023-10-13T13:41:14;8.70;;;1.90;;
65799;SDS011;52544;48.116;11.660;2023-10-13T13:43:47;9.57;;;1.92;;
65799;SDS011;52544;48.116;11.660;2023-10-13T13:46:26;9.32;;;2.13;;
65799;SDS011;52544;48.116;11.660;2023-10-13T13:48:58;12.85;;;3.28;;
65799;SDS011;52544;48.116;11.660;2023-10-13T13:51:25;9.80;;;2.33;;
65799;SDS011;52544;48.116;11.660;2023-10-13T13:53:54;9.20;;;2.05;;
65799;SDS011;52544;48.116;11.660;2023-10-13T13:56:21;7.53;;;2.10;;
65799;SDS011;52544;48.116;11.660;2023-10-13T13:58:50;10.05;;;2.08;;
65799;SDS011;52544;48.116;11.660;2023-10-13T14:01:17;8.50;;;2.03;;
65799;SDS011;52544;48.116;11.660;2023-10-13T14:03:51;4.47;;;1.60;;
65799;SDS011;52544;48.116;11.660;2023-10-13T14:06:22;6.00;;;1.95;;
65799;SDS011;52544;48.116;11.660;2023-10-13T14:08:49;2.13;;;1.20;;
65799;SDS011;52544;48.116;11.660;2023-10-13T14:11:26;2.92;;;1.60;;
65799;SDS011;52544;48.116;11.660;2023-10-13T14:16:36;7.57;;;1.73;;
65799;SDS011;52544;48.116;11.660;2023-10-13T14:19:03;7.75;;;1.88;;
65799;SDS011;52544;48.116;11.660;2023-10-13T14:21:32;7.90;;;2.00;;
65799;SDS011;52544;48.116;11.660;2023-10-13T14:24:00;4.22;;;1.90;;
65799;SDS011;52544;48.116;11.660;2023-10-13T14:26:26;6.30;;;2.03;;
65799;SDS011;52544;48.116;11.660;2023-10-13T14:28:52;14.70;;;1.98;;
65799;SDS011;52544;48.116;11.660;2023-10-13T14:31:30;4.45;;;1.55;;
65799;SDS011;52544;48.116;11.660;2023-10-13T14:33:56;7.47;;;1.63;;
65799;SDS011;52544;48.116;11.660;2023-10-13T14:36:22;10.00;;;1.80;;
65799;SDS011;52544;48.116;11.660;2023-10-13T14:38:48;4.95;;;2.10;;
65799;SDS011;52544;48.116;11.660;2023-10-13T14:41:17;4.18;;;1.52;;
65799;SDS011;52544;48.116;11.660;2023-10-13T14:43:43;3.88;;;1.70;;
65799;SDS011;52544;48.116;11.660;2023-10-13T14:46:15;4.40;;;1.70;;
65799;SDS011;52544;48.116;11.660;2023-10-13T14:48:48;4.82;;;1.80;;
65799;SDS011;52544;48.116;11.660;2023-10-13T14:51:14;9.25;;;1.50;;
65799;SDS011;52544;48.116;11.660;2023-10-13T14:53:45;5.40;;;1.50;;
65799;SDS011;52544;48.116;11.660;2023-10-13T14:58:37;6.50;;;1.90;;
65799;SDS011;52544;48.116;11.660;2023-10-13T15:01:15;4.85;;;1.70;;
65799;SDS011;52544;48.116;11.660;2023-10-13T15:03:46;4.05;;;1.80;;
65799;SDS011;52544;48.116;11.660;2023-10-13T15:06:25;5.07;;;1.30;;
65799;SDS011;52544;48.116;11.660;2023-10-13T15:08:58;8.73;;;1.75;;
65799;SDS011;52544;48.116;11.660;2023-10-13T15:11:24;10.90;;;2.15;;
65799;SDS011;52544;48.116;11.660;2023-10-13T15:14:01;9.02;;;2.00;;
65799;SDS011;52544;48.116;11.660;2023-10-13T15:16:27;7.82;;;1.90;;
65799;SDS011;52544;48.116;11.660;2023-10-13T15:18:53;6.57;;;1.80;;
65799;SDS011;52544;48.116;11.660;2023-10-13T15:21:23;5.15;;;1.92;;
65799;SDS011;52544;48.116;11.660;2023-10-13T15:23:59;5.72;;;1.65;;
65799;SDS011;52544;48.116;11.660;2023-10-13T15:26:31;5.47;;;1.70;;
65799;SDS011;52544;48.116;11.660;2023-10-13T15:29:03;6.53;;;2.00;;
65799;SDS011;52544;48.116;11.660;2023-10-13T15:31:34;7.25;;;1.70;;
65799;SDS011;52544;48.116;11.660;2023-10-13T15:34:03;9.50;;;1.83;;